Time;durP1;ratioP1;P1;durP2;ratioP2;P2;SDS_P1;SDS_P2;PMS_P1;PMS_P2;Temp;Humidity;BMP_temperature;BMP_pressure;BME280_temperature;BME280_humidity;BME280_pressure;Samples;Min_cycle;Max_cycle;Signal;HPM_P1;HPM_P2
2023/08/11 00:00:36;;;;;;;13.88;3.33;;;22.30;99.90;;;;;;4913935;29;20501;-84
2023/08/11 00:03:06;;;;;;;16.75;3.25;;;22.30;99.90;;;;;;4914328;29;20020;-84
2023/08/11 00:05:38;;;;;;;19.08;3.25;;;22.30;99.90;;;;;;4914150;29;20036;-83
2023/08/11 00:08:05;;;;;;;17.58;3.22;;;22.30;99.90;;;;;;4913383;29;20114;-84
2023/08/11 00:10:32;;;;;;;15.38;2.97;;;22.30;99.90;;;;;;4914421;29;20385;-85
2023/08/11 00:12:58;;;;;;;20.08;3.40;;;22.40;99.90;;;;;;4913873;29;20028;-84
2023/08/11 00:15:24;;;;;;;12.38;2.58;;;22.40;99.90;;;;;;4913526;29;20047;-87
2023/08/11 00:17:53;;;;;;;14.07;3.17;;;22.30;99.90;;;;;;4912090;29;20511;-88
2023/08/11 00:20:19;;;;;;;15.63;3.45;;;22.30;99.90;;;;;;4913573;29;20028;-84
2023/08/11 00:22:45;;;;;;;17.90;2.95;;;22.30;99.90;;;;;;4913892;29;20025;-88
2023/08/11 00:25:11;;;;;;;16.50;3.35;;;22.30;99.90;;;;;;4912531;29;20020;-88
2023/08/11 00:27:37;;;;;;;13.60;3.33;;;22.30;99.90;;;;;;4912260;29;20035;-84
2023/08/11 00:30:05;;;;;;;10.25;2.65;;;22.30;99.90;;;;;;4914171;29;20044;-84
2023/08/11 00:32:30;;;;;;;12.65;2.65;;;22.30;99.90;;;;;;4912504;29;20031;-89
2023/08/11 00:34:56;;;;;;;12.95;3.58;;;22.30;99.90;;;;;;4911585;29;20036;-84
2023/08/11 00:37:22;;;;;;;14.23;2.70;;;24.60;99.90;;;;;;4913737;29;20032;-84
2023/08/11 00:39:48;;;;;;;15.20;4.22;;;22.30;99.90;;;;;;4913298;29;20036;-83
2023/08/11 00:42:14;;;;;;;15.50;3.20;;;22.30;99.90;;;;;;4913631;29;20056;-89
2023/08/11 00:44:40;;;;;;;12.70;2.90;;;22.30;99.90;;;;;;4911827;29;20116;-84
2023/08/11 00:47:05;;;;;;;18.23;2.75;;;22.30;99.90;;;;;;4911968;29;20481;-83
2023/08/11 00:49:31;;;;;;;13.25;3.20;;;22.30;99.90;;;;;;4914384;29;20060;-86
2023/08/11 00:51:57;;;;;;;16.40;2.88;;;22.20;99.90;;;;;;4911847;29;20028;-83
2023/08/11 00:54:25;;;;;;;15.52;3.10;;;24.10;99.90;;;;;;4912977;29;20043;-88
2023/08/11 00:56:51;;;;;;;12.10;2.92;;;22.30;99.90;;;;;;4913016;29;20114;-83
2023/08/11 00:59:21;;;;;;;12.73;3.00;;;22.30;99.90;;;;;;4913361;29;20024;-84
2023/08/11 01:01:47;;;;;;;11.65;2.78;;;22.20;99.90;;;;;;4913286;29;20020;-84
2023/08/11 01:04:13;;;;;;;10.35;3.10;;;22.20;99.90;;;;;;4912265;29;20445;-84
2023/08/11 01:06:59;;;;;;;10.85;3.03;;;22.20;99.90;;;;;;4912433;29;20500;-84
2023/08/11 01:09:48;;;;;;;17.17;3.13;;;22.40;99.90;;;;;;4910355;29;20051;-84
2023/08/11 01:12:25;;;;;;;15.90;3.20;;;22.20;99.90;;;;;;4911455;29;20115;-88
2023/08/11 01:15:06;;;;;;;9.25;2.72;;;21.60;99.90;;;;;;4912808;29;20028;-83
2023/08/11 01:17:33;;;;;;;10.60;2.60;;;22.20;99.90;;;;;;4912482;29;20032;-84
2023/08/11 01:20:00;;;;;;;14.30;2.65;;;22.20;99.90;;;;;;4912125;29;20068;-85
2023/08/11 01:22:28;;;;;;;14.67;3.17;;;22.20;99.90;;;;;;4912602;29;20020;-84
2023/08/11 01:24:54;;;;;;;;;;;22.10;99.90;;;;;;4912424;29;20292;-84
2023/08/11 01:27:20;;;;;;;10.38;3.08;;;22.10;99.90;;;;;;4912929;29;20364;-84
2023/08/11 01:29:45;;;;;;;11.40;2.55;;;22.00;99.90;;;;;;4910627;29;20042;-84
2023/08/11 01:32:11;;;;;;;15.50;3.00;;;22.00;99.90;;;;;;4912848;29;20496;-84
2023/08/11 01:34:37;;;;;;;14.00;2.67;;;22.00;99.90;;;;;;4911362;29;20519;-88
2023/08/11 01:37:03;;;;;;;11.02;2.70;;;22.10;99.90;;;;;;4913267;29;20036;-89
2023/08/11 01:39:30;;;;;;;8.73;2.35;;;22.10;99.90;;;;;;4912725;29;20100;-84
2023/08/11 01:41:56;;;;;;;8.98;2.50;;;22.10;99.90;;;;;;4911923;29;20064;-84
2023/08/11 01:44:22;;;;;;;10.18;2.65;;;22.00;99.90;;;;;;4910707;29;20032;-84
2023/08/11 01:46:50;;;;;;;12.13;2.58;;;22.00;99.90;;;;;;4912833;29;20028;-84
2023/08/11 01:49:16;;;;;;;7.60;2.63;;;22.00;99.90;;;;;;4912911;29;20412;-87
2023/08/11 01:51:42;;;;;;;13.05;3.33;;;22.00;99.90;;;;;;4912006;29;20096;-84
2023/08/11 01:54:08;;;;;;;18.27;3.33;;;22.00;99.90;;;;;;4911999;29;20404;-84
2023/08/11 01:56:36;;;;;;;15.77;3.03;;;21.90;99.90;;;;;;4913549;29;20024;-84
2023/08/11 01:59:11;;;;;;;11.18;2.90;;;21.90;99.90;;;;;;4912372;29;20490;-84
2023/08/11 02:01:38;;;;;;;13.13;3.20;;;22.00;99.90;;;;;;4912771;29;20060;-85
2023/08/11 02:04:04;;;;;;;9.18;2.97;;;21.90;99.90;;;;;;4912868;29;20474;-88
2023/08/11 02:06:30;;;;;;;9.40;2.45;;;22.00;99.90;;;;;;4912383;29;20393;-84
2023/08/11 02:08:56;;;;;;;11.25;2.85;;;22.60;99.90;;;;;;4911076;29;20289;-89
2023/08/11 02:11:22;;;;;;;11.77;3.05;;;22.00;99.90;;;;;;4912251;29;20102;-84
2023/08/11 02:13:48;;;;;;;10.07;3.08;;;22.10;99.90;;;;;;4911477;29;20039;-84
2023/08/11 02:16:13;;;;;;;15.15;3.13;;;22.00;99.90;;;;;;4911236;29;20031;-84
2023/08/11 02:18:39;;;;;;;10.43;2.80;;;22.10;99.90;;;;;;4912304;29;20036;-84
2023/08/11 02:21:07;;;;;;;12.77;3.15;;;22.10;99.90;;;;;;4913263;29;20381;-84
2023/08/11 02:23:33;;;;;;;14.02;3.20;;;22.10;99.90;;;;;;4911976;29;20509;-84
2023/08/11 02:25:58;;;;;;;13.55;3.20;;;22.10;99.90;;;;;;4912097;29;20553;-84
2023/08/11 02:28:25;;;;;;;12.63;2.70;;;22.20;99.90;;;;;;4911914;29;20437;-84
2023/08/11 02:30:50;;;;;;;17.95;3.50;;;22.20;99.90;;;;;;4911410;29;20063;-84
2023/08/11 02:33:18;;;;;;;12.70;2.70;;;22.20;99.90;;;;;;4912097;29;20036;-89
2023/08/11 02:35:44;;;;;;;13.15;3.40;;;22.20;99.90;;;;;;4912274;29;20040;-84
2023/08/11 02:38:10;;;;;;;11.60;2.80;;;22.20;99.90;;;;;;4911636;29;20465;-84
2023/08/11 02:40:35;;;;;;;9.60;2.55;;;22.10;99.90;;;;;;4913130;29;20528;-84
2023/08/11 02:43:02;;;;;;;12.45;2.97;;;20.60;99.90;;;;;;4915128;29;20028;-85
2023/08/11 02:45:27;;;;;;;9.10;3.00;;;22.10;99.90;;;;;;4913473;29;20103;-84
2023/08/11 02:47:53;;;;;;;7.20;2.60;;;22.20;99.90;;;;;;4915467;29;20035;-85
2023/08/11 02:50:19;;;;;;;8.70;2.97;;;22.20;99.90;;;;;;4915037;29;20111;-89
2023/08/11 02:52:45;;;;;;;10.75;2.17;;;22.20;99.90;;;;;;4915656;29;20178;-84
2023/08/11 02:55:11;;;;;;;11.70;2.95;;;22.20;99.90;;;;;;4915218;29;20028;-88
2023/08/11 02:57:37;;;;;;;8.70;2.35;;;22.20;99.90;;;;;;4916121;29;20020;-83
2023/08/11 03:00:13;;;;;;;6.53;2.05;;;22.20;99.90;;;;;;4915074;29;20040;-87
2023/08/11 03:02:40;;;;;;;9.55;2.63;;;22.30;99.90;;;;;;4915873;29;20448;-85
2023/08/11 03:05:08;;;;;;;8.60;2.67;;;22.20;99.90;;;;;;4914676;29;20114;-83
2023/08/11 03:07:38;;;;;;;9.07;2.55;;;22.20;99.90;;;;;;4913143;29;20036;-84
2023/08/11 03:10:04;;;;;;;8.20;2.33;;;22.30;99.90;;;;;;4913337;29;20039;-84
2023/08/11 03:12:30;;;;;;;6.65;2.28;;;22.20;99.90;;;;;;4915223;29;20487;-85
2023/08/11 03:14:56;;;;;;;8.43;2.55;;;22.30;99.90;;;;;;4913630;29;20020;-83
2023/08/11 03:17:23;;;;;;;13.65;3.00;;;22.30;99.90;;;;;;4914493;29;20020;-83
2023/08/11 03:19:48;;;;;;;6.70;2.10;;;22.20;99.90;;;;;;4914097;29;20106;-84
2023/08/11 03:22:17;;;;;;;7.78;2.40;;;22.30;99.90;;;;;;4914306;29;20485;-84
2023/08/11 03:24:46;;;;;;;10.30;2.70;;;22.30;99.90;;;;;;4915199;29;20031;-84
2023/08/11 03:27:12;;;;;;;11.38;2.45;;;;;;;;;;4909889;29;20079;-85
2023/08/11 03:29:38;;;;;;;10.85;2.63;;;22.20;99.90;;;;;;4909620;29;20044;-84
2023/08/11 03:32:04;;;;;;;9.00;2.53;;;22.20;99.90;;;;;;4914873;29;20488;-84
2023/08/11 03:34:30;;;;;;;7.55;2.20;;;22.20;99.90;;;;;;4911559;29;20032;-83
2023/08/11 03:36:56;;;;;;;8.15;2.38;;;22.20;99.90;;;;;;4914663;29;20107;-84
2023/08/11 03:39:21;;;;;;;6.85;2.30;;;22.10;99.90;;;;;;4913871;29;20076;-85
2023/08/11 03:41:47;;;;;;;7.75;2.25;;;22.10;99.90;;;;;;4913222;29;20438;-86
2023/08/11 03:44:13;;;;;;;7.60;2.67;;;22.10;99.90;;;;;;4913050;29;20563;-85
2023/08/11 03:46:38;;;;;;;8.57;2.55;;;22.10;99.90;;;;;;4914387;29;20032;-88
2023/08/11 03:49:06;;;;;;;10.65;2.60;;;22.00;99.90;;;;;;4913444;29;20040;-84
2023/08/11 03:51:32;;;;;;;7.43;2.25;;;22.30;99.90;;;;;;4913581;29;20421;-84
2023/08/11 03:54:01;;;;;;;11.65;2.58;;;22.00;99.90;;;;;;4912396;29;20123;-84
2023/08/11 03:56:26;;;;;;;10.13;2.75;;;22.00;99.90;;;;;;4913356;29;20036;-89
2023/08/11 03:58:52;;;;;;;7.32;2.20;;;21.90;99.90;;;;;;4913934;29;20075;-84
2023/08/11 04:01:17;;;;;;;9.88;2.50;;;22.00;99.90;;;;;;4912382;29;20409;-84
2023/08/11 04:03:43;;;;;;;8.13;2.30;;;22.00;99.90;;;;;;4897246;29;20087;-84
2023/08/11 04:06:10;;;;;;;6.30;2.10;;;22.00;99.90;;;;;;4896766;29;20116;-84
2023/08/11 04:08:35;;;;;;;10.15;2.88;;;22.00;99.90;;;;;;4912944;29;20485;-88
2023/08/11 04:11:01;;;;;;;9.32;3.08;;;22.00;99.90;;;;;;4912166;29;20050;-88
2023/08/11 04:13:27;;;;;;;6.78;2.28;;;;;;;;;;4908589;29;20496;-88
2023/08/11 04:15:53;;;;;;;9.65;2.55;;;;;;;;;;4903882;29;20036;-89
2023/08/11 04:18:18;;;;;;;7.75;2.45;;;21.90;99.90;;;;;;4911506;29;20400;-86
2023/08/11 04:20:46;;;;;;;7.15;2.42;;;21.90;99.90;;;;;;4910292;29;20118;-86
2023/08/11 04:23:13;;;;;;;6.57;2.20;;;;;;;;;;4914519;29;20024;-87
2023/08/11 04:25:39;;;;;;;6.82;2.22;;;21.80;99.90;;;;;;4913705;29;20024;-86
2023/08/11 04:28:04;;;;;;;8.70;2.90;;;21.80;99.90;;;;;;4913206;29;20324;-87
2023/08/11 04:30:30;;;;;;;5.72;2.15;;;;;;;;;;4911324;29;20500;-88
2023/08/11 04:32:57;;;;;;;6.75;2.95;;;21.80;99.90;;;;;;4912812;29;20400;-87
2023/08/11 04:35:22;;;;;;;6.05;2.45;;;21.80;99.90;;;;;;4913278;29;20028;-87
2023/08/11 04:37:48;;;;;;;9.82;2.65;;;21.80;99.90;;;;;;4912509;29;20032;-88
2023/08/11 04:40:14;;;;;;;12.68;2.63;;;21.80;99.90;;;;;;4913821;29;20032;-88
2023/08/11 04:42:42;;;;;;;8.25;3.03;;;21.70;99.90;;;;;;4913668;29;20067;-91
2023/08/11 04:45:08;;;;;;;;;;;21.70;99.90;;;;;;4913585;29;20036;-87
2023/08/11 04:47:34;;;;;;;11.32;3.03;;;21.70;99.90;;;;;;4911858;29;19970;-88
2023/08/11 04:50:00;;;;;;;6.85;2.40;;;21.60;99.90;;;;;;4912879;29;20069;-87
2023/08/11 04:52:27;;;;;;;12.70;2.88;;;21.60;99.90;;;;;;4915807;29;20035;-88
2023/08/11 04:54:53;;;;;;;10.15;2.60;;;21.60;99.90;;;;;;4919142;29;20036;-87
2023/08/11 04:57:18;;;;;;;11.93;2.58;;;21.60;99.90;;;;;;4908334;29;20457;-87
2023/08/11 04:59:45;;;;;;;7.50;2.53;;;21.70;99.90;;;;;;4912212;29;20024;-87
2023/08/11 05:02:12;;;;;;;8.13;2.67;;;21.70;99.90;;;;;;4909084;29;20028;-87
2023/08/11 05:04:38;;;;;;;9.52;2.55;;;21.60;99.90;;;;;;4911041;29;20087;-87
2023/08/11 05:07:06;;;;;;;10.27;2.78;;;21.60;99.90;;;;;;4911074;29;20031;-88
2023/08/11 05:09:32;;;;;;;5.50;2.40;;;21.70;99.90;;;;;;4912974;29;20132;-86
2023/08/11 05:11:58;;;;;;;13.32;2.80;;;;;;;;;;4902918;29;20107;-88
2023/08/11 05:14:24;;;;;;;8.40;2.60;;;;;;;;;;4899777;29;20032;-88
2023/08/11 05:16:50;;;;;;;11.52;2.80;;;21.70;99.90;;;;;;4912314;29;20035;-88
2023/08/11 05:19:16;;;;;;;8.90;2.65;;;21.70;99.90;;;;;;4913115;29;20028;-89
2023/08/11 05:21:42;;;;;;;6.32;2.30;;;;;;;;;;4913244;29;20063;-89
2023/08/11 05:24:10;;;;;;;8.60;2.25;;;21.80;99.90;;;;;;4911525;29;20055;-90
2023/08/11 05:26:36;;;;;;;6.80;2.20;;;21.80;99.90;;;;;;4912568;29;20052;-88
2023/08/11 05:29:01;;;;;;;7.38;2.58;;;21.90;99.90;;;;;;4910678;29;20122;-89
2023/08/11 05:31:27;;;;;;;6.75;2.20;;;;;;;;;;4923477;29;20055;-89
2023/08/11 05:33:53;;;;;;;6.60;2.42;;;;;;;;;;4909655;29;20032;-89
2023/08/11 05:36:19;;;;;;;6.80;2.58;;;;;;;;;;4901152;29;20039;-90
2023/08/11 05:38:45;;;;;;;11.20;2.40;;;;;;;;;;4914139;29;20517;-91
2023/08/11 05:41:11;;;;;;;9.40;2.47;;;;;;;;;;4929049;29;20568;-92
2023/08/11 05:43:38;;;;;;;7.13;2.45;;;;;;;;;;4927952;29;20514;-89
2023/08/11 05:46:06;;;;;;;7.35;2.42;;;22.10;99.90;;;;;;4912907;29;20123;-84
2023/08/11 05:48:38;;;;;;;10.93;3.10;;;22.20;99.90;;;;;;4911968;29;20024;-84
2023/08/11 05:51:04;;;;;;;8.05;3.03;;;22.20;99.90;;;;;;4912731;29;20036;-87
2023/08/11 05:53:30;;;;;;;9.30;2.80;;;22.20;99.90;;;;;;4912040;29;20036;-83
2023/08/11 05:55:56;;;;;;;6.57;2.58;;;22.30;99.90;;;;;;4912661;29;20085;-86
2023/08/11 05:58:22;;;;;;;6.75;2.25;;;22.30;99.90;;;;;;4910987;29;20032;-85
2023/08/11 06:00:48;;;;;;;9.57;2.70;;;22.30;99.90;;;;;;4913285;29;20281;-82
2023/08/11 06:03:17;;;;;;;9.57;2.58;;;22.40;99.90;;;;;;4912498;29;20076;-82
2023/08/11 06:05:42;;;;;;;9.45;2.45;;;24.00;99.90;;;;;;4910883;29;20437;-84
2023/08/11 06:08:08;;;;;;;6.75;2.40;;;22.40;99.90;;;;;;4912566;29;20112;-82
2023/08/11 06:10:34;;;;;;;9.02;2.72;;;22.60;99.90;;;;;;4911910;29;20605;-82
2023/08/11 06:13:00;;;;;;;8.55;2.70;;;22.50;99.90;;;;;;4912520;29;20078;-82
2023/08/11 06:15:25;;;;;;;7.10;2.35;;;22.60;99.90;;;;;;4912461;29;20038;-82
2023/08/11 06:17:51;;;;;;;8.50;2.80;;;22.60;99.90;;;;;;4913423;29;20062;-82
2023/08/11 06:20:21;;;;;;;8.48;2.90;;;22.70;99.90;;;;;;4916950;29;20115;-82
2023/08/11 06:22:48;;;;;;;6.35;2.67;;;22.60;99.90;;;;;;4916175;29;20060;-82
2023/08/11 06:25:15;;;;;;;6.95;2.63;;;22.60;99.90;;;;;;4914618;29;20036;-82
2023/08/11 06:27:42;;;;;;;9.27;2.40;;;22.60;99.90;;;;;;4916097;29;20020;-83
2023/08/11 06:30:09;;;;;;;8.55;2.60;;;22.70;99.90;;;;;;4914778;29;20044;-82
2023/08/11 06:32:35;;;;;;;9.13;2.80;;;22.60;99.90;;;;;;4915734;29;20064;-84
2023/08/11 06:35:01;;;;;;;6.45;2.45;;;22.60;99.90;;;;;;4914279;29;20055;-82
2023/08/11 06:37:27;;;;;;;10.23;2.70;;;22.60;99.90;;;;;;4914866;29;20082;-82
2023/08/11 06:39:55;;;;;;;11.00;2.70;;;22.60;99.90;;;;;;4915889;29;20441;-82
2023/08/11 06:42:21;;;;;;;13.25;2.78;;;22.50;99.90;;;;;;4915932;29;20024;-82
2023/08/11 06:44:47;;;;;;;12.85;3.80;;;22.60;99.90;;;;;;4916328;29;20557;-82
2023/08/11 06:47:12;;;;;;;8.45;2.88;;;22.60;99.90;;;;;;4915296;29;20025;-83
2023/08/11 06:49:38;;;;;;;6.90;2.60;;;22.50;99.90;;;;;;4915518;29;20040;-82
2023/08/11 06:52:04;;;;;;;13.38;3.50;;;22.60;99.90;;;;;;4915587;29;20030;-82
2023/08/11 06:54:29;;;;;;;8.80;2.90;;;22.60;99.90;;;;;;4914906;29;20035;-82
2023/08/11 06:56:55;;;;;;;12.20;3.05;;;22.60;99.90;;;;;;4929915;29;20028;-82
2023/08/11 06:59:21;;;;;;;11.75;3.00;;;22.70;99.90;;;;;;4916273;29;20088;-82
2023/08/11 07:01:47;;;;;;;7.18;2.45;;;22.70;99.90;;;;;;4916284;29;20035;-82
2023/08/11 07:04:12;;;;;;;11.73;2.80;;;22.80;99.90;;;;;;4915027;29;20036;-82
2023/08/11 07:06:38;;;;;;;11.85;2.70;;;22.70;99.90;;;;;;4915317;29;20460;-82
2023/08/11 07:09:04;;;;;;;13.75;2.90;;;22.80;99.90;;;;;;4915196;29;20055;-82
2023/08/11 07:11:29;;;;;;;14.55;3.10;;;22.90;99.90;;;;;;4914432;29;20111;-82
2023/08/11 07:13:56;;;;;;;8.50;2.55;;;23.00;99.90;;;;;;4915011;29;20111;-84
2023/08/11 07:16:22;;;;;;;9.07;2.60;;;23.00;99.90;;;;;;4915562;29;20024;-82
2023/08/11 07:18:47;;;;;;;9.95;3.28;;;22.90;99.90;;;;;;4930377;29;20028;-86
2023/08/11 07:21:13;;;;;;;9.80;2.88;;;23.10;99.90;;;;;;4929404;29;20456;-86
2023/08/11 07:23:39;;;;;;;12.30;3.65;;;23.10;99.90;;;;;;4914657;29;20035;-83
2023/08/11 07:26:05;;;;;;;8.43;2.65;;;23.10;99.90;;;;;;4914944;29;20044;-83
2023/08/11 07:28:30;;;;;;;11.40;3.08;;;23.20;99.90;;;;;;4928596;29;20059;-82
2023/08/11 07:30:56;;;;;;;12.07;3.00;;;21.80;99.90;;;;;;4914737;29;20489;-85
2023/08/11 07:33:21;;;;;;;15.15;3.55;;;23.10;99.90;;;;;;4915278;29;20056;-84
2023/08/11 07:35:47;;;;;;;12.38;3.33;;;23.10;99.90;;;;;;4914766;29;20087;-87
2023/08/11 07:38:13;;;;;;;11.70;2.80;;;22.30;99.90;;;;;;4913213;29;20250;-83
2023/08/11 07:40:39;;;;;;;8.20;2.67;;;23.20;99.90;;;;;;4914553;29;20034;-84
2023/08/11 07:43:04;;;;;;;9.10;2.63;;;23.10;99.90;;;;;;4914317;29;20071;-83
2023/08/11 07:45:33;;;;;;;10.80;2.70;;;23.20;99.90;;;;;;4913554;29;20060;-84
2023/08/11 07:47:59;;;;;;;11.18;2.58;;;23.20;99.90;;;;;;4914157;29;20024;-84
2023/08/11 07:50:24;;;;;;;12.60;2.75;;;23.20;99.90;;;;;;4914574;29;20091;-82
2023/08/11 07:52:50;;;;;;;20.00;3.65;;;23.30;99.90;;;;;;4915182;29;20025;-84
2023/08/11 07:55:15;;;;;;;10.05;2.50;;;23.20;99.90;;;;;;4914414;29;20024;-83
2023/08/11 07:57:41;;;;;;;11.00;2.88;;;23.00;99.90;;;;;;4914136;29;20134;-83
2023/08/11 08:00:13;;;;;;;11.48;2.58;;;23.20;99.90;;;;;;4914225;29;20055;-84
2023/08/11 08:02:40;;;;;;;11.93;2.70;;;23.10;99.90;;;;;;4913347;29;20032;-82
2023/08/11 08:05:06;;;;;;;9.52;2.30;;;23.10;99.90;;;;;;4914154;29;20047;-82
2023/08/11 08:07:31;;;;;;;11.20;3.05;;;23.10;99.90;;;;;;4913984;29;20032;-86
2023/08/11 08:09:57;;;;;;;6.28;2.17;;;23.20;99.90;;;;;;4913865;29;20040;-82
2023/08/11 08:12:22;;;;;;;9.40;2.78;;;23.10;99.90;;;;;;4914789;29;20080;-82
2023/08/11 08:14:48;;;;;;;9.55;2.45;;;23.20;99.90;;;;;;4914156;29;20070;-82
2023/08/11 08:17:14;;;;;;;6.55;2.22;;;23.20;99.90;;;;;;4913866;29;20032;-85
2023/08/11 08:19:39;;;;;;;11.85;2.60;;;23.30;99.90;;;;;;4913159;29;20080;-82
2023/08/11 08:22:05;;;;;;;7.72;2.17;;;23.30;99.90;;;;;;4912646;29;20485;-82
2023/08/11 08:24:31;;;;;;;12.23;3.17;;;23.20;99.90;;;;;;4913665;29;20024;-85
2023/08/11 08:26:56;;;;;;;9.95;2.70;;;23.30;99.90;;;;;;4913626;29;20028;-83
2023/08/11 08:29:22;;;;;;;10.43;2.63;;;23.30;99.90;;;;;;4914192;29;20036;-84
2023/08/11 08:31:47;;;;;;;8.20;2.00;;;23.40;99.90;;;;;;4913624;29;20409;-83
2023/08/11 08:34:13;;;;;;;9.13;2.20;;;23.40;99.90;;;;;;4913594;29;20024;-82
2023/08/11 08:36:38;;;;;;;10.98;2.70;;;23.20;99.90;;;;;;4912978;29;20429;-84
2023/08/11 08:39:04;;;;;;;8.57;2.58;;;23.20;99.90;;;;;;4913066;29;20024;-86
2023/08/11 08:41:31;;;;;;;9.38;2.42;;;23.10;99.90;;;;;;4913376;29;20563;-82
2023/08/11 08:44:00;;;;;;;12.03;2.57;;;23.10;99.90;;;;;;4913896;29;20103;-82
2023/08/11 08:46:28;;;;;;;6.70;2.83;;;23.20;99.90;;;;;;4913950;29;20476;-86
2023/08/11 08:49:26;;;;;;;9.88;2.30;;;23.30;99.90;;;;;;4914281;29;20040;-84
2023/08/11 08:51:53;;;;;;;5.88;2.40;;;23.40;99.90;;;;;;4912527;29;20028;-82
2023/08/11 08:54:19;;;;;;;7.97;2.40;;;23.40;99.90;;;;;;4910094;29;20055;-81
2023/08/11 08:56:45;;;;;;;12.95;2.58;;;23.40;99.90;;;;;;4911754;29;20028;-82
2023/08/11 08:59:11;;;;;;;10.27;2.50;;;23.40;99.90;;;;;;4913334;29;20032;-81
2023/08/11 09:01:38;;;;;;;6.80;2.38;;;23.40;99.90;;;;;;4913030;29;20388;-82
2023/08/11 09:04:06;;;;;;;8.88;2.75;;;23.40;99.90;;;;;;4911798;29;20464;-83
2023/08/11 09:06:33;;;;;;;9.32;2.50;;;23.50;99.90;;;;;;4913163;29;20083;-86
2023/08/11 09:08:59;;;;;;;7.78;2.40;;;23.60;99.90;;;;;;4913108;29;20201;-82
2023/08/11 09:11:26;;;;;;;10.77;2.78;;;23.70;99.90;;;;;;4912968;29;20099;-81
2023/08/11 09:13:52;;;;;;;10.05;2.55;;;23.80;99.90;;;;;;4912893;29;20069;-82
2023/08/11 09:16:23;;;;;;;10.63;2.67;;;26.00;99.90;;;;;;4913060;29;20322;-81
2023/08/11 09:18:49;;;;;;;6.65;2.40;;;22.00;99.90;;;;;;4913071;29;20280;-82
2023/08/11 09:21:15;;;;;;;9.60;2.55;;;23.90;99.90;;;;;;4912786;29;20504;-82
2023/08/11 09:23:43;;;;;;;8.18;2.38;;;24.00;99.90;;;;;;4912463;29;20123;-82
2023/08/11 09:26:09;;;;;;;8.68;2.33;;;24.00;99.90;;;;;;4912918;29;20016;-82
2023/08/11 09:28:35;;;;;;;7.32;1.98;;;24.10;99.90;;;;;;4912004;29;20032;-82
2023/08/11 09:31:01;;;;;;;7.30;2.22;;;24.20;99.90;;;;;;4912683;29;20032;-81
2023/08/11 09:33:28;;;;;;;5.60;2.13;;;24.30;99.90;;;;;;4913769;29;20028;-86
2023/08/11 09:35:54;;;;;;;7.65;2.13;;;24.20;99.90;;;;;;4912499;29;20107;-83
2023/08/11 09:38:20;;;;;;;9.40;2.33;;;24.40;99.90;;;;;;4912843;29;20052;-82
2023/08/11 09:40:51;;;;;;;10.45;2.28;;;24.00;99.90;;;;;;4912640;29;20024;-83
2023/08/11 09:43:17;;;;;;;8.55;2.50;;;23.90;99.90;;;;;;4912807;29;20115;-82
2023/08/11 09:45:42;;;;;;;10.02;4.50;;;23.90;99.90;;;;;;4911590;29;20032;-82
2023/08/11 09:48:08;;;;;;;24.08;15.88;;;23.90;99.90;;;;;;4912766;29;20044;-82
2023/08/11 09:50:35;;;;;;;7.03;3.97;;;23.90;99.90;;;;;;4912411;29;20032;-82
2023/08/11 09:53:04;;;;;;;9.35;3.42;;;23.80;99.90;;;;;;4915844;29;20024;-82
2023/08/11 09:55:32;;;;;;;6.05;2.17;;;23.80;99.90;;;;;;4917079;29;20020;-82
2023/08/11 09:57:59;;;;;;;;;;;23.80;99.90;;;;;;4916353;29;20028;-82
2023/08/11 10:00:25;;;;;;;7.25;2.55;;;23.70;99.90;;;;;;4916257;29;20352;-82
2023/08/11 10:03:06;;;;;;;7.80;2.50;;;23.80;99.90;;;;;;4916103;29;20618;-82
2023/08/11 10:05:36;;;;;;;12.85;5.63;;;23.40;99.90;;;;;;4916187;29;20031;-82
2023/08/11 10:08:04;;;;;;;8.68;2.60;;;23.40;99.90;;;;;;4916485;29;20020;-82
2023/08/11 10:10:31;;;;;;;4.80;2.00;;;23.50;99.90;;;;;;4917116;29;20080;-82
2023/08/11 10:13:21;;;;;;;5.57;2.33;;;23.40;99.90;;;;;;4917262;29;20024;-82
2023/08/11 10:15:48;;;;;;;8.27;2.88;;;23.40;99.90;;;;;;4915607;29;20498;-82
2023/08/11 10:18:16;;;;;;;9.25;2.20;;;23.50;99.90;;;;;;4915656;29;20020;-82
2023/08/11 10:20:41;;;;;;;7.75;2.40;;;23.40;99.90;;;;;;4916164;29;20108;-82
2023/08/11 10:23:08;;;;;;;6.55;2.13;;;23.50;99.90;;;;;;4916032;29;20111;-83
2023/08/11 10:25:36;;;;;;;6.47;3.00;;;23.50;99.90;;;;;;4916120;29;20021;-82
2023/08/11 10:28:02;;;;;;;5.47;2.17;;;23.50;99.90;;;;;;4917059;29;20024;-82
2023/08/11 10:30:28;;;;;;;5.40;1.92;;;23.60;99.90;;;;;;4931258;29;20068;-82
2023/08/11 10:33:03;;;;;;;4.75;2.03;;;23.50;99.90;;;;;;4914793;29;20028;-82
2023/08/11 10:35:34;;;;;;;4.10;1.80;;;23.50;99.90;;;;;;4916072;29;20032;-82
2023/08/11 10:38:00;;;;;;;4.40;1.88;;;23.60;99.90;;;;;;4916696;29;20032;-82
2023/08/11 10:40:38;;;;;;;6.50;2.28;;;23.60;99.90;;;;;;4915579;29;20468;-82
2023/08/11 10:43:04;;;;;;;6.03;2.00;;;23.10;99.90;;;;;;4914365;29;20047;-82
2023/08/11 10:45:35;;;;;;;7.47;2.10;;;23.70;99.90;;;;;;4916433;29;20071;-82
2023/08/11 10:48:08;;;;;;;5.65;2.15;;;23.70;99.90;;;;;;4916593;29;20036;-82
2023/08/11 10:50:38;;;;;;;6.55;2.50;;;23.70;99.90;;;;;;4915333;29;20036;-82
2023/08/11 10:53:07;;;;;;;5.35;2.50;;;23.60;99.90;;;;;;4914920;29;20025;-82
2023/08/11 10:55:39;;;;;;;6.47;2.92;;;23.70;99.90;;;;;;4914698;29;20028;-82
2023/08/11 10:58:17;;;;;;;5.70;2.78;;;23.60;99.90;;;;;;4915557;29;20052;-82
2023/08/11 11:00:43;;;;;;;5.88;2.30;;;23.70;99.90;;;;;;4915332;29;20403;-82
2023/08/11 11:03:11;;;;;;;6.53;2.70;;;23.60;99.90;;;;;;4914298;29;20121;-82
2023/08/11 11:05:37;;;;;;;6.97;2.58;;;23.60;99.90;;;;;;4914554;29;20075;-82
2023/08/11 11:08:03;;;;;;;6.35;2.40;;;23.70;99.90;;;;;;4915323;29;20115;-82
2023/08/11 11:10:28;;;;;;;6.65;2.17;;;23.60;99.90;;;;;;4912933;29;20571;-82
2023/08/11 11:12:55;;;;;;;6.90;2.72;;;26.30;99.90;;;;;;4914448;29;20388;-82
2023/08/11 11:15:21;;;;;;;6.57;2.28;;;23.60;99.90;;;;;;4913572;29;20030;-82
2023/08/11 11:17:50;;;;;;;4.47;2.08;;;23.60;99.90;;;;;;4914406;29;20053;-82
2023/08/11 11:20:16;;;;;;;2.92;2.08;;;23.70;99.90;;;;;;4914231;29;20024;-82
2023/08/11 11:22:49;;;;;;;4.57;2.00;;;23.60;99.90;;;;;;4914249;29;20082;-82
2023/08/11 11:25:17;;;;;;;5.00;1.92;;;23.70;99.90;;;;;;4914243;29;20103;-82
2023/08/11 11:27:43;;;;;;;3.17;1.95;;;23.60;99.90;;;;;;4913722;29;20028;-82
2023/08/11 11:30:10;;;;;;;3.25;1.95;;;23.60;99.90;;;;;;4913737;29;20516;-82
2023/08/11 11:32:36;;;;;;;3.60;2.15;;;23.70;99.90;;;;;;4915666;29;20048;-82
2023/08/11 11:35:04;;;;;;;5.57;2.40;;;23.60;99.90;;;;;;4915300;29;20077;-82
2023/08/11 11:37:31;;;;;;;4.53;1.95;;;23.70;99.90;;;;;;4915043;29;20111;-82
2023/08/11 11:39:58;;;;;;;3.90;2.30;;;23.70;99.90;;;;;;4914864;29;20107;-83
2023/08/11 11:42:29;;;;;;;4.45;2.60;;;23.70;99.90;;;;;;4914564;29;20032;-82
2023/08/11 11:44:55;;;;;;;4.75;2.40;;;23.70;99.90;;;;;;4895692;29;20063;-82
2023/08/11 11:47:21;;;;;;;3.85;2.33;;;23.70;99.90;;;;;;4906042;29;20039;-82
2023/08/11 11:49:54;;;;;;;4.78;2.70;;;23.70;99.90;;;;;;4914559;29;20032;-82
2023/08/11 11:52:20;;;;;;;4.78;2.70;;;23.70;99.90;;;;;;4914641;29;20047;-82
2023/08/11 11:54:51;;;;;;;5.07;2.95;;;23.70;99.90;;;;;;4914521;29;20025;-82
2023/08/11 11:57:16;;;;;;;6.35;2.92;;;23.60;99.90;;;;;;4914492;29;20056;-83
2023/08/11 11:59:42;;;;;;;3.25;2.50;;;23.50;99.90;;;;;;4913785;29;20070;-82
2023/08/11 12:02:08;;;;;;;4.13;2.60;;;23.50;99.90;;;;;;4914472;29;20079;-82
2023/08/11 12:04:33;;;;;;;5.07;2.70;;;23.50;99.90;;;;;;4915112;29;20028;-82
2023/08/11 12:07:01;;;;;;;4.07;2.65;;;23.60;99.90;;;;;;4914364;29;20028;-84
2023/08/11 12:09:26;;;;;;;5.45;3.03;;;23.80;99.90;;;;;;4914259;29;20092;-83
2023/08/11 12:11:55;;;;;;;4.32;3.05;;;23.60;99.90;;;;;;4914011;29;20437;-83
2023/08/11 12:14:21;;;;;;;3.42;3.00;;;23.70;99.90;;;;;;4913279;29;20034;-83
2023/08/11 12:16:46;;;;;;;4.93;3.60;;;23.60;99.90;;;;;;4913308;29;20040;-83
2023/08/11 12:19:14;;;;;;;8.73;6.10;;;23.70;99.90;;;;;;4913933;29;20043;-83
2023/08/11 12:21:42;;;;;;;14.70;8.10;;;23.70;99.90;;;;;;4913918;29;20059;-83
2023/08/11 12:24:11;;;;;;;;;;;23.60;99.90;;;;;;4915081;29;20119;-83
2023/08/11 12:26:36;;;;;;;11.65;6.85;;;23.60;99.90;;;;;;4914556;29;19914;-83
2023/08/11 12:29:04;;;;;;;10.38;5.55;;;23.50;99.90;;;;;;4913465;29;20020;-83
2023/08/11 12:31:30;;;;;;;;;;;23.50;99.90;;;;;;4913072;29;20048;-83
2023/08/11 12:33:56;;;;;;;6.45;3.55;;;23.50;99.90;;;;;;4912901;29;19918;-83
2023/08/11 12:36:21;;;;;;;3.00;2.40;;;23.50;99.90;;;;;;4913637;29;20035;-83
2023/08/11 12:38:49;;;;;;;2.55;1.85;;;23.40;99.90;;;;;;4912065;29;20502;-83
2023/08/11 12:41:17;;;;;;;1.15;0.70;;;23.30;99.90;;;;;;4913740;29;20499;-83
2023/08/11 12:43:43;;;;;;;0.45;0.45;;;23.30;99.90;;;;;;4912737;29;20421;-83
2023/08/11 12:46:08;;;;;;;0.95;0.30;;;23.20;99.90;;;;;;4912223;29;20508;-83